sensor_id;sensor_type;location;lat;lon;timestamp;temperature;humidity
2897;DHT22;1458;49.728;9.228;2023-09-19T00:00:27;16.60;99.90
2897;DHT22;1458;49.728;9.228;2023-09-19T00:02:55;16.60;99.90
2897;DHT22;1458;49.728;9.228;2023-09-19T00:05:25;16.60;99.90
2897;DHT22;1458;49.728;9.228;2023-09-19T00:07:54;16.60;99.90
2897;DHT22;1458;49.728;9.228;2023-09-19T00:10:25;16.50;99.90
2897;DHT22;1458;49.728;9.228;2023-09-19T00:12:53;16.50;99.90
2897;DHT22;1458;49.728;9.228;2023-09-19T00:15:23;16.50;99.90
2897;DHT22;1458;49.728;9.228;2023-09-19T00:17:51;16.50;99.90
2897;DHT22;1458;49.728;9.228;2023-09-19T00:20:19;16.50;99.90
2897;DHT22;1458;49.728;9.228;2023-09-19T00:22:49;16.50;99.90
2897;DHT22;1458;49.728;9.228;2023-09-19T00:25:18;16.50;99.90
2897;DHT22;1458;49.728;9.228;2023-09-19T00:27:46;16.60;99.90
2897;DHT22;1458;49.728;9.228;2023-09-19T00:30:15;16.50;99.90
2897;DHT22;1458;49.728;9.228;2023-09-19T00:32:48;16.50;99.90
2897;DHT22;1458;49.728;9.228;2023-09-19T00:35:20;16.60;99.90
2897;DHT22;1458;49.728;9.228;2023-09-19T00:37:49;16.60;99.90
2897;DHT22;1458;49.728;9.228;2023-09-19T00:40:17;16.70;99.90
2897;DHT22;1458;49.728;9.228;2023-09-19T00:42:46;16.50;99.90
2897;DHT22;1458;49.728;9.228;2023-09-19T00:45:15;16.50;99.90
2897;DHT22;1458;49.728;9.228;2023-09-19T00:47:46;16.40;99.90
2897;DHT22;1458;49.728;9.228;2023-09-19T00:50:17;16.40;99.90
2897;DHT22;1458;49.728;9.228;2023-09-19T00:52:46;16.40;99.90
2897;DHT22;1458;49.728;9.228;2023-09-19T00:55:16;16.50;99.90
2897;DHT22;1458;49.728;9.228;2023-09-19T00:57:45;16.60;99.90
2897;DHT22;1458;49.728;9.228;2023-09-19T01:00:13;16.50;99.90
2897;DHT22;1458;49.728;9.228;2023-09-19T01:02:42;16.50;99.90
2897;DHT22;1458;49.728;9.228;2023-09-19T01:05:11;16.50;99.90
2897;DHT22;1458;49.728;9.228;2023-09-19T01:07:39;16.40;99.90
2897;DHT22;1458;49.728;9.228;2023-09-19T01:10:09;16.40;99.90
2897;DHT22;1458;49.728;9.228;2023-09-19T01:12:47;16.60;99.90
2897;DHT22;1458;49.728;9.228;2023-09-19T01:15:40;16.70;99.90
2897;DHT22;1458;49.728;9.228;2023-09-19T01:18:25;16.80;99.90
2897;DHT22;1458;49.728;9.228;2023-09-19T01:21:07;16.90;99.90
2897;DHT22;1458;49.728;9.228;2023-09-19T01:24:07;16.90;99.90
2897;DHT22;1458;49.728;9.228;2023-09-19T01:30:00;17.00;99.90
2897;DHT22;1458;49.728;9.228;2023-09-19T01:32:35;17.00;99.90
2897;DHT22;1458;49.728;9.228;2023-09-19T01:35:04;17.10;99.90
2897;DHT22;1458;49.728;9.228;2023-09-19T01:37:32;17.20;99.90
2897;DHT22;1458;49.728;9.228;2023-09-19T01:40:01;17.10;99.90
2897;DHT22;1458;49.728;9.228;2023-09-19T01:42:37;17.10;99.90
2897;DHT22;1458;49.728;9.228;2023-09-19T01:45:12;17.10;99.90
2897;DHT22;1458;49.728;9.228;2023-09-19T01:47:49;17.20;99.90
2897;DHT22;1458;49.728;9.228;2023-09-19T01:50:26;17.20;99.90
2897;DHT22;1458;49.728;9.228;2023-09-19T01:53:07;17.30;99.90
2897;DHT22;1458;49.728;9.228;2023-09-19T01:55:43;17.40;99.90
2897;DHT22;1458;49.728;9.228;2023-09-19T01:58:20;17.40;99.60
2897;DHT22;1458;49.728;9.228;2023-09-19T02:00:50;17.50;98.70
2897;DHT22;1458;49.728;9.228;2023-09-19T02:03:20;17.50;98.20
2897;DHT22;1458;49.728;9.228;2023-09-19T02:05:50;17.60;98.00
2897;DHT22;1458;49.728;9.228;2023-09-19T02:08:21;17.60;99.30
2897;DHT22;1458;49.728;9.228;2023-09-19T02:10:50;17.40;99.90
2897;DHT22;1458;49.728;9.228;2023-09-19T02:13:20;17.20;99.90
2897;DHT22;1458;49.728;9.228;2023-09-19T02:15:49;17.00;99.90
2897;DHT22;1458;49.728;9.228;2023-09-19T02:18:17;16.90;99.90
2897;DHT22;1458;49.728;9.228;2023-09-19T02:20:44;16.90;99.90
2897;DHT22;1458;49.728;9.228;2023-09-19T02:23:13;16.80;99.90
2897;DHT22;1458;49.728;9.228;2023-09-19T02:25:41;16.70;99.90
2897;DHT22;1458;49.728;9.228;2023-09-19T02:28:10;16.70;99.90
2897;DHT22;1458;49.728;9.228;2023-09-19T02:30:38;16.70;99.90
2897;DHT22;1458;49.728;9.228;2023-09-19T02:33:07;16.60;99.90
2897;DHT22;1458;49.728;9.228;2023-09-19T02:35:34;16.60;99.90
2897;DHT22;1458;49.728;9.228;2023-09-19T02:38:02;16.70;99.90
2897;DHT22;1458;49.728;9.228;2023-09-19T02:40:32;16.70;99.90
2897;DHT22;1458;49.728;9.228;2023-09-19T02:43:01;16.70;99.90
2897;DHT22;1458;49.728;9.228;2023-09-19T02:45:29;16.70;99.90
2897;DHT22;1458;49.728;9.228;2023-09-19T02:47:57;16.70;99.90
2897;DHT22;1458;49.728;9.228;2023-09-19T02:50:27;16.70;99.90
2897;DHT22;1458;49.728;9.228;2023-09-19T02:52:54;16.70;99.90
2897;DHT22;1458;49.728;9.228;2023-09-19T02:55:22;16.70;99.90
2897;DHT22;1458;49.728;9.228;2023-09-19T02:57:51;16.70;99.90
2897;DHT22;1458;49.728;9.228;2023-09-19T03:00:21;16.80;99.90
2897;DHT22;1458;49.728;9.228;2023-09-19T03:02:50;16.80;99.90
2897;DHT22;1458;49.728;9.228;2023-09-19T03:05:20;16.80;99.90
2897;DHT22;1458;49.728;9.228;2023-09-19T03:07:51;16.70;99.90
2897;DHT22;1458;49.728;9.228;2023-09-19T03:10:20;16.70;99.90
2897;DHT22;1458;49.728;9.228;2023-09-19T03:12:49;16.60;99.90
2897;DHT22;1458;49.728;9.228;2023-09-19T03:15:18;16.60;99.90
2897;DHT22;1458;49.728;9.228;2023-09-19T03:17:46;16.70;99.90
2897;DHT22;1458;49.728;9.228;2023-09-19T03:20:18;16.60;99.90
2897;DHT22;1458;49.728;9.228;2023-09-19T03:22:47;16.60;99.90
2897;DHT22;1458;49.728;9.228;2023-09-19T03:25:17;16.60;99.90
2897;DHT22;1458;49.728;9.228;2023-09-19T03:27:48;16.50;99.90
2897;DHT22;1458;49.728;9.228;2023-09-19T03:30:16;16.40;99.90
2897;DHT22;1458;49.728;9.228;2023-09-19T03:32:45;16.30;99.90
2897;DHT22;1458;49.728;9.228;2023-09-19T03:35:16;16.30;99.90
2897;DHT22;1458;49.728;9.228;2023-09-19T03:37:45;16.30;99.90
2897;DHT22;1458;49.728;9.228;2023-09-19T03:40:14;16.30;99.90
2897;DHT22;1458;49.728;9.228;2023-09-19T03:42:44;16.30;99.90
2897;DHT22;1458;49.728;9.228;2023-09-19T03:45:13;16.30;99.90
2897;DHT22;1458;49.728;9.228;2023-09-19T03:47:48;16.30;99.90
2897;DHT22;1458;49.728;9.228;2023-09-19T03:50:18;16.30;99.90
2897;DHT22;1458;49.728;9.228;2023-09-19T03:52:46;16.10;99.90
2897;DHT22;1458;49.728;9.228;2023-09-19T03:55:13;16.00;99.90
2897;DHT22;1458;49.728;9.228;2023-09-19T03:57:41;15.90;99.90
2897;DHT22;1458;49.728;9.228;2023-09-19T04:00:11;15.80;99.90
2897;DHT22;1458;49.728;9.228;2023-09-19T04:02:41;15.80;99.90
2897;DHT22;1458;49.728;9.228;2023-09-19T04:05:08;15.70;99.90
2897;DHT22;1458;49.728;9.228;2023-09-19T04:07:36;15.70;99.90
2897;DHT22;1458;49.728;9.228;2023-09-19T04:10:04;15.60;99.90
2897;DHT22;1458;49.728;9.228;2023-09-19T04:12:34;15.50;99.90
2897;DHT22;1458;49.728;9.228;2023-09-19T04:15:02;15.50;99.90
2897;DHT22;1458;49.728;9.228;2023-09-19T04:17:31;15.40;99.90
2897;DHT22;1458;49.728;9.228;2023-09-19T04:19:59;15.40;99.90
2897;DHT22;1458;49.728;9.228;2023-09-19T04:22:27;15.40;99.90
2897;DHT22;1458;49.728;9.228;2023-09-19T04:24:54;15.40;99.90
2897;DHT22;1458;49.728;9.228;2023-09-19T04:27:22;15.30;99.90
2897;DHT22;1458;49.728;9.228;2023-09-19T04:29:49;15.30;99.90
2897;DHT22;1458;49.728;9.228;2023-09-19T04:32:18;15.20;99.90
2897;DHT22;1458;49.728;9.228;2023-09-19T04:34:47;15.10;99.90
2897;DHT22;1458;49.728;9.228;2023-09-19T04:37:16;15.10;99.90
2897;DHT22;1458;49.728;9.228;2023-09-19T04:39:44;15.10;99.90
2897;DHT22;1458;49.728;9.228;2023-09-19T04:42:13;15.00;99.90
2897;DHT22;1458;49.728;9.228;2023-09-19T04:44:41;15.10;99.90
2897;DHT22;1458;49.728;9.228;2023-09-19T04:47:08;15.00;99.90
2897;DHT22;1458;49.728;9.228;2023-09-19T04:49:37;14.90;99.90
2897;DHT22;1458;49.728;9.228;2023-09-19T04:52:07;14.90;99.90
2897;DHT22;1458;49.728;9.228;2023-09-19T04:54:34;14.90;99.90
2897;DHT22;1458;49.728;9.228;2023-09-19T04:57:02;14.90;99.90
2897;DHT22;1458;49.728;9.228;2023-09-19T04:59:31;14.90;99.90
2897;DHT22;1458;49.728;9.228;2023-09-19T05:01:59;14.90;99.90
2897;DHT22;1458;49.728;9.228;2023-09-19T05:04:26;14.80;99.90
2897;DHT22;1458;49.728;9.228;2023-09-19T05:06:54;14.80;99.90
2897;DHT22;1458;49.728;9.228;2023-09-19T05:09:23;14.90;99.90
2897;DHT22;1458;49.728;9.228;2023-09-19T05:11:50;14.80;99.90
2897;DHT22;1458;49.728;9.228;2023-09-19T05:14:18;14.80;99.90
2897;DHT22;1458;49.728;9.228;2023-09-19T05:16:46;14.70;99.90
2897;DHT22;1458;49.728;9.228;2023-09-19T05:19:15;14.70;99.90
2897;DHT22;1458;49.728;9.228;2023-09-19T05:21:42;14.70;99.90
2897;DHT22;1458;49.728;9.228;2023-09-19T05:24:10;14.60;99.90
2897;DHT22;1458;49.728;9.228;2023-09-19T05:26:39;14.60;99.90
2897;DHT22;1458;49.728;9.228;2023-09-19T05:29:07;14.70;99.90
2897;DHT22;1458;49.728;9.228;2023-09-19T05:31:35;14.90;99.90
2897;DHT22;1458;49.728;9.228;2023-09-19T05:34:06;14.90;99.90
2897;DHT22;1458;49.728;9.228;2023-09-19T05:36:35;14.90;99.90
2897;DHT22;1458;49.728;9.228;2023-09-19T05:39:03;15.00;99.90
2897;DHT22;1458;49.728;9.228;2023-09-19T05:41:31;15.00;99.90
2897;DHT22;1458;49.728;9.228;2023-09-19T05:44:01;15.00;99.90
2897;DHT22;1458;49.728;9.228;2023-09-19T05:46:28;14.90;99.90
2897;DHT22;1458;49.728;9.228;2023-09-19T05:48:56;14.90;99.90
2897;DHT22;1458;49.728;9.228;2023-09-19T05:51:24;15.10;99.90
2897;DHT22;1458;49.728;9.228;2023-09-19T05:53:54;15.20;99.90
2897;DHT22;1458;49.728;9.228;2023-09-19T05:56:21;15.10;99.90
2897;DHT22;1458;49.728;9.228;2023-09-19T05:58:49;15.10;99.90
2897;DHT22;1458;49.728;9.228;2023-09-19T06:01:20;15.20;99.90
2897;DHT22;1458;49.728;9.228;2023-09-19T06:03:48;15.10;99.90
2897;DHT22;1458;49.728;9.228;2023-09-19T06:06:16;15.20;99.90
2897;DHT22;1458;49.728;9.228;2023-09-19T06:08:44;15.20;99.90
2897;DHT22;1458;49.728;9.228;2023-09-19T06:11:12;15.40;99.90
2897;DHT22;1458;49.728;9.228;2023-09-19T06:13:39;15.30;99.90
2897;DHT22;1458;49.728;9.228;2023-09-19T06:16:07;15.50;99.90
2897;DHT22;1458;49.728;9.228;2023-09-19T06:18:36;15.50;99.90
2897;DHT22;1458;49.728;9.228;2023-09-19T06:21:04;15.50;99.90
2897;DHT22;1458;49.728;9.228;2023-09-19T06:23:33;15.60;99.90
2897;DHT22;1458;49.728;9.228;2023-09-19T06:26:01;15.70;99.90
2897;DHT22;1458;49.728;9.228;2023-09-19T06:28:29;15.70;99.90
2897;DHT22;1458;49.728;9.228;2023-09-19T06:30:56;15.80;99.90
2897;DHT22;1458;49.728;9.228;2023-09-19T06:33:24;15.90;99.90
2897;DHT22;1458;49.728;9.228;2023-09-19T06:35:53;16.00;99.90
2897;DHT22;1458;49.728;9.228;2023-09-19T06:38:25;16.10;99.90
2897;DHT22;1458;49.728;9.228;2023-09-19T06:40:53;16.40;99.90
2897;DHT22;1458;49.728;9.228;2023-09-19T06:43:21;16.70;99.90
2897;DHT22;1458;49.728;9.228;2023-09-19T06:45:49;16.80;99.90
2897;DHT22;1458;49.728;9.228;2023-09-19T06:48:17;16.90;99.90
2897;DHT22;1458;49.728;9.228;2023-09-19T06:50:45;17.20;99.90
2897;DHT22;1458;49.728;9.228;2023-09-19T06:53:15;17.40;99.90
2897;DHT22;1458;49.728;9.228;2023-09-19T06:55:43;17.60;99.90
2897;DHT22;1458;49.728;9.228;2023-09-19T06:58:11;17.80;99.90
2897;DHT22;1458;49.728;9.228;2023-09-19T07:00:38;17.90;99.90
2897;DHT22;1458;49.728;9.228;2023-09-19T07:03:07;18.00;99.90
2897;DHT22;1458;49.728;9.228;2023-09-19T07:05:38;18.00;99.90
2897;DHT22;1458;49.728;9.228;2023-09-19T07:08:06;18.10;99.90
2897;DHT22;1458;49.728;9.228;2023-09-19T07:10:37;18.10;99.60
2897;DHT22;1458;49.728;9.228;2023-09-19T07:13:06;18.00;99.90
2897;DHT22;1458;49.728;9.228;2023-09-19T07:15:37;18.00;99.90
2897;DHT22;1458;49.728;9.228;2023-09-19T07:18:12;18.10;99.20
2897;DHT22;1458;49.728;9.228;2023-09-19T07:20:41;18.20;97.40
2897;DHT22;1458;49.728;9.228;2023-09-19T07:23:12;18.10;95.80
2897;DHT22;1458;49.728;9.228;2023-09-19T07:25:42;18.10;95.90
2897;DHT22;1458;49.728;9.228;2023-09-19T07:28:09;18.10;96.80
2897;DHT22;1458;49.728;9.228;2023-09-19T07:30:37;18.30;95.10
2897;DHT22;1458;49.728;9.228;2023-09-19T07:33:05;18.30;91.80
2897;DHT22;1458;49.728;9.228;2023-09-19T07:35:33;18.20;91.10
2897;DHT22;1458;49.728;9.228;2023-09-19T07:38:00;18.20;91.70
2897;DHT22;1458;49.728;9.228;2023-09-19T07:40:28;18.10;92.40
2897;DHT22;1458;49.728;9.228;2023-09-19T07:42:57;18.10;92.50
2897;DHT22;1458;49.728;9.228;2023-09-19T07:45:27;18.10;93.10
2897;DHT22;1458;49.728;9.228;2023-09-19T07:47:55;18.10;90.90
2897;DHT22;1458;49.728;9.228;2023-09-19T07:50:23;18.20;92.40
2897;DHT22;1458;49.728;9.228;2023-09-19T07:52:52;18.20;91.30
2897;DHT22;1458;49.728;9.228;2023-09-19T07:55:20;18.20;87.40
2897;DHT22;1458;49.728;9.228;2023-09-19T07:57:49;18.40;90.60
2897;DHT22;1458;49.728;9.228;2023-09-19T08:00:18;18.60;87.80
2897;DHT22;1458;49.728;9.228;2023-09-19T08:02:46;18.60;87.10
2897;DHT22;1458;49.728;9.228;2023-09-19T08:05:14;18.60;87.70
2897;DHT22;1458;49.728;9.228;2023-09-19T08:07:45;18.70;85.80
2897;DHT22;1458;49.728;9.228;2023-09-19T08:10:15;18.80;83.20
2897;DHT22;1458;49.728;9.228;2023-09-19T08:12:46;18.80;81.90
2897;DHT22;1458;49.728;9.228;2023-09-19T08:15:15;18.90;80.20
2897;DHT22;1458;49.728;9.228;2023-09-19T08:17:47;18.70;80.20
2897;DHT22;1458;49.728;9.228;2023-09-19T08:20:15;18.70;83.10
2897;DHT22;1458;49.728;9.228;2023-09-19T08:22:47;18.70;83.10
2897;DHT22;1458;49.728;9.228;2023-09-19T08:25:15;18.90;83.10
2897;DHT22;1458;49.728;9.228;2023-09-19T08:27:44;18.90;81.30
2897;DHT22;1458;49.728;9.228;2023-09-19T08:30:14;19.00;82.30
2897;DHT22;1458;49.728;9.228;2023-09-19T08:32:42;19.00;82.30
2897;DHT22;1458;49.728;9.228;2023-09-19T08:35:11;19.20;79.20
2897;DHT22;1458;49.728;9.228;2023-09-19T08:37:38;19.20;78.80
2897;DHT22;1458;49.728;9.228;2023-09-19T08:40:06;19.20;79.50
2897;DHT22;1458;49.728;9.228;2023-09-19T08:42:48;19.20;78.60
2897;DHT22;1458;49.728;9.228;2023-09-19T08:45:17;19.20;76.50
2897;DHT22;1458;49.728;9.228;2023-09-19T08:47:46;19.30;77.80
2897;DHT22;1458;49.728;9.228;2023-09-19T08:50:26;19.30;75.60
2897;DHT22;1458;49.728;9.228;2023-09-19T08:52:55;19.20;77.30
2897;DHT22;1458;49.728;9.228;2023-09-19T08:55:27;19.20;74.50
2897;DHT22;1458;49.728;9.228;2023-09-19T08:58:00;19.20;74.20
2897;DHT22;1458;49.728;9.228;2023-09-19T09:00:30;19.30;76.40
2897;DHT22;1458;49.728;9.228;2023-09-19T09:02:59;19.40;74.30
2897;DHT22;1458;49.728;9.228;2023-09-19T09:05:30;19.60;74.20
2897;DHT22;1458;49.728;9.228;2023-09-19T09:07:59;19.70;76.00
2897;DHT22;1458;49.728;9.228;2023-09-19T09:10:26;19.80;73.80
2897;DHT22;1458;49.728;9.228;2023-09-19T09:12:53;19.80;69.50
2897;DHT22;1458;49.728;9.228;2023-09-19T09:15:22;19.80;71.20
2897;DHT22;1458;49.728;9.228;2023-09-19T09:17:51;19.80;67.80
2897;DHT22;1458;49.728;9.228;2023-09-19T09:20:19;19.60;69.10
2897;DHT22;1458;49.728;9.228;2023-09-19T09:22:55;19.60;67.60
2897;DHT22;1458;49.728;9.228;2023-09-19T09:25:47;19.70;68.00
2897;DHT22;1458;49.728;9.228;2023-09-19T09:28:21;19.60;65.30
2897;DHT22;1458;49.728;9.228;2023-09-19T09:30:49;19.70;64.10
2897;DHT22;1458;49.728;9.228;2023-09-19T09:33:17;19.90;68.20
2897;DHT22;1458;49.728;9.228;2023-09-19T09:35:49;19.70;64.50
2897;DHT22;1458;49.728;9.228;2023-09-19T09:38:21;19.50;64.50
2897;DHT22;1458;49.728;9.228;2023-09-19T09:40:52;19.40;62.90
2897;DHT22;1458;49.728;9.228;2023-09-19T09:43:33;19.30;65.10
2897;DHT22;1458;49.728;9.228;2023-09-19T09:46:20;19.20;65.80
2897;DHT22;1458;49.728;9.228;2023-09-19T09:49:05;19.20;63.20
2897;DHT22;1458;49.728;9.228;2023-09-19T09:51:59;19.40;63.20
2897;DHT22;1458;49.728;9.228;2023-09-19T09:54:33;19.50;58.70
2897;DHT22;1458;49.728;9.228;2023-09-19T09:57:05;19.60;62.80
2897;DHT22;1458;49.728;9.228;2023-09-19T09:59:47;19.80;61.30
2897;DHT22;1458;49.728;9.228;2023-09-19T10:02:24;20.10;59.60
2897;DHT22;1458;49.728;9.228;2023-09-19T10:04:55;20.30;56.40
2897;DHT22;1458;49.728;9.228;2023-09-19T10:07:35;20.30;56.40
2897;DHT22;1458;49.728;9.228;2023-09-19T10:10:06;20.30;54.60
2897;DHT22;1458;49.728;9.228;2023-09-19T10:12:46;19.90;55.20
2897;DHT22;1458;49.728;9.228;2023-09-19T10:15:16;20.00;52.80
2897;DHT22;1458;49.728;9.228;2023-09-19T10:17:47;20.10;52.90
2897;DHT22;1458;49.728;9.228;2023-09-19T10:20:16;20.30;56.60
2897;DHT22;1458;49.728;9.228;2023-09-19T10:23:03;20.30;53.80
2897;DHT22;1458;49.728;9.228;2023-09-19T10:25:38;20.30;47.10
2897;DHT22;1458;49.728;9.228;2023-09-19T10:28:07;20.30;47.20
2897;DHT22;1458;49.728;9.228;2023-09-19T10:30:39;20.20;48.60
2897;DHT22;1458;49.728;9.228;2023-09-19T10:33:11;20.40;50.20
2897;DHT22;1458;49.728;9.228;2023-09-19T10:35:42;20.60;51.70
2897;DHT22;1458;49.728;9.228;2023-09-19T10:38:12;20.70;50.20
2897;DHT22;1458;49.728;9.228;2023-09-19T10:40:42;20.60;49.60
2897;DHT22;1458;49.728;9.228;2023-09-19T10:43:13;20.50;46.70
2897;DHT22;1458;49.728;9.228;2023-09-19T10:45:45;20.50;49.40
2897;DHT22;1458;49.728;9.228;2023-09-19T10:48:15;20.70;48.50
2897;DHT22;1458;49.728;9.228;2023-09-19T10:50:48;20.60;46.80
2897;DHT22;1458;49.728;9.228;2023-09-19T10:53:17;20.60;45.90
2897;DHT22;1458;49.728;9.228;2023-09-19T10:55:53;20.60;48.60
2897;DHT22;1458;49.728;9.228;2023-09-19T10:58:27;20.50;45.70
2897;DHT22;1458;49.728;9.228;2023-09-19T11:00:56;20.30;43.70
2897;DHT22;1458;49.728;9.228;2023-09-19T11:03:33;20.30;45.50
2897;DHT22;1458;49.728;9.228;2023-09-19T11:06:11;20.30;46.40
2897;DHT22;1458;49.728;9.228;2023-09-19T11:09:06;20.20;45.40
2897;DHT22;1458;49.728;9.228;2023-09-19T11:11:50;20.50;48.60
2897;DHT22;1458;49.728;9.228;2023-09-19T11:14:41;20.50;50.30
2897;DHT22;1458;49.728;9.228;2023-09-19T11:17:40;20.50;47.70
2897;DHT22;1458;49.728;9.228;2023-09-19T11:20:19;20.50;48.20
2897;DHT22;1458;49.728;9.228;2023-09-19T11:23:18;20.50;48.50
2897;DHT22;1458;49.728;9.228;2023-09-19T11:25:53;20.60;49.50
2897;DHT22;1458;49.728;9.228;2023-09-19T11:28:35;20.80;44.80
2897;DHT22;1458;49.728;9.228;2023-09-19T11:34:40;21.30;49.80
2897;DHT22;1458;49.728;9.228;2023-09-19T11:40:45;21.30;46.40
2897;DHT22;1458;49.728;9.228;2023-09-19T11:43:30;21.60;50.40
2897;DHT22;1458;49.728;9.228;2023-09-19T11:46:04;21.20;45.10
2897;DHT22;1458;49.728;9.228;2023-09-19T11:48:35;21.10;43.40
2897;DHT22;1458;49.728;9.228;2023-09-19T11:51:12;20.80;44.90
2897;DHT22;1458;49.728;9.228;2023-09-19T11:53:48;20.80;43.30
2897;DHT22;1458;49.728;9.228;2023-09-19T11:56:18;20.80;44.40
2897;DHT22;1458;49.728;9.228;2023-09-19T11:58:49;20.70;44.30
2897;DHT22;1458;49.728;9.228;2023-09-19T12:01:24;20.50;45.80
2897;DHT22;1458;49.728;9.228;2023-09-19T12:03:55;20.60;46.20
2897;DHT22;1458;49.728;9.228;2023-09-19T12:06:25;20.70;44.20
2897;DHT22;1458;49.728;9.228;2023-09-19T12:08:55;20.80;45.20
2897;DHT22;1458;49.728;9.228;2023-09-19T12:11:28;21.00;46.10
2897;DHT22;1458;49.728;9.228;2023-09-19T12:13:59;21.00;44.30
2897;DHT22;1458;49.728;9.228;2023-09-19T12:16:28;21.00;43.70
2897;DHT22;1458;49.728;9.228;2023-09-19T12:18:57;21.00;44.20
2897;DHT22;1458;49.728;9.228;2023-09-19T12:21:26;21.00;43.30
2897;DHT22;1458;49.728;9.228;2023-09-19T12:24:03;20.90;43.50
2897;DHT22;1458;49.728;9.228;2023-09-19T12:26:39;20.70;43.50
2897;DHT22;1458;49.728;9.228;2023-09-19T12:29:12;20.70;45.10
2897;DHT22;1458;49.728;9.228;2023-09-19T12:31:52;20.70;46.00
2897;DHT22;1458;49.728;9.228;2023-09-19T12:34:24;20.80;42.70
2897;DHT22;1458;49.728;9.228;2023-09-19T12:37:10;20.80;43.50
2897;DHT22;1458;49.728;9.228;2023-09-19T12:39:43;20.90;41.00
2897;DHT22;1458;49.728;9.228;2023-09-19T12:42:15;20.80;39.50
2897;DHT22;1458;49.728;9.228;2023-09-19T12:44:45;20.70;41.50
2897;DHT22;1458;49.728;9.228;2023-09-19T12:47:19;20.70;40.40
2897;DHT22;1458;49.728;9.228;2023-09-19T12:50:08;20.70;42.10
2897;DHT22;1458;49.728;9.228;2023-09-19T12:52:51;20.70;41.70
2897;DHT22;1458;49.728;9.228;2023-09-19T12:55:26;20.70;43.10
2897;DHT22;1458;49.728;9.228;2023-09-19T13:00:42;20.70;41.80
2897;DHT22;1458;49.728;9.228;2023-09-19T13:03:26;20.60;40.30
2897;DHT22;1458;49.728;9.228;2023-09-19T13:05:58;20.60;39.60
2897;DHT22;1458;49.728;9.228;2023-09-19T13:08:28;20.50;39.30
2897;DHT22;1458;49.728;9.228;2023-09-19T13:11:06;20.60;42.20
2897;DHT22;1458;49.728;9.228;2023-09-19T13:13:40;20.70;43.60
2897;DHT22;1458;49.728;9.228;2023-09-19T13:16:10;20.80;40.90
2897;DHT22;1458;49.728;9.228;2023-09-19T13:18:46;21.10;42.80
2897;DHT22;1458;49.728;9.228;2023-09-19T13:21:17;21.20;39.40
2897;DHT22;1458;49.728;9.228;2023-09-19T13:23:55;21.00;38.30
2897;DHT22;1458;49.728;9.228;2023-09-19T13:26:25;21.00;40.60
2897;DHT22;1458;49.728;9.228;2023-09-19T13:28:53;21.10;38.30
2897;DHT22;1458;49.728;9.228;2023-09-19T13:31:21;21.20;36.60
2897;DHT22;1458;49.728;9.228;2023-09-19T13:33:51;21.10;37.70
2897;DHT22;1458;49.728;9.228;2023-09-19T13:36:18;21.10;39.00
2897;DHT22;1458;49.728;9.228;2023-09-19T13:38:45;21.30;40.80
2897;DHT22;1458;49.728;9.228;2023-09-19T13:41:15;21.30;38.70
2897;DHT22;1458;49.728;9.228;2023-09-19T13:43:42;21.30;38.40
2897;DHT22;1458;49.728;9.228;2023-09-19T13:46:14;21.10;39.10
2897;DHT22;1458;49.728;9.228;2023-09-19T13:48:42;20.90;37.40
2897;DHT22;1458;49.728;9.228;2023-09-19T13:51:11;20.90;40.10
2897;DHT22;1458;49.728;9.228;2023-09-19T13:53:38;20.90;38.90
2897;DHT22;1458;49.728;9.228;2023-09-19T13:56:05;20.90;35.70
2897;DHT22;1458;49.728;9.228;2023-09-19T13:58:33;21.00;38.50
2897;DHT22;1458;49.728;9.228;2023-09-19T14:01:01;21.10;37.00
2897;DHT22;1458;49.728;9.228;2023-09-19T14:03:29;21.20;36.20
2897;DHT22;1458;49.728;9.228;2023-09-19T14:05:57;21.20;35.60
2897;DHT22;1458;49.728;9.228;2023-09-19T14:08:26;21.10;35.60
2897;DHT22;1458;49.728;9.228;2023-09-19T14:10:53;21.10;35.80
2897;DHT22;1458;49.728;9.228;2023-09-19T14:13:20;21.10;37.70
2897;DHT22;1458;49.728;9.228;2023-09-19T14:15:48;21.10;37.10
2897;DHT22;1458;49.728;9.228;2023-09-19T14:18:15;21.10;36.60
2897;DHT22;1458;49.728;9.228;2023-09-19T14:20:44;21.20;36.70
2897;DHT22;1458;49.728;9.228;2023-09-19T14:23:11;21.20;38.40
2897;DHT22;1458;49.728;9.228;2023-09-19T14:25:40;21.30;37.30
2897;DHT22;1458;49.728;9.228;2023-09-19T14:28:07;21.50;38.40
2897;DHT22;1458;49.728;9.228;2023-09-19T14:30:35;21.60;37.70
2897;DHT22;1458;49.728;9.228;2023-09-19T14:33:04;21.60;39.20
2897;DHT22;1458;49.728;9.228;2023-09-19T14:35:31;21.60;38.30
2897;DHT22;1458;49.728;9.228;2023-09-19T14:37:59;21.60;37.40
2897;DHT22;1458;49.728;9.228;2023-09-19T14:40:26;21.60;36.50
2897;DHT22;1458;49.728;9.228;2023-09-19T14:42:55;21.70;36.20
2897;DHT22;1458;49.728;9.228;2023-09-19T14:45:23;21.80;38.50
2897;DHT22;1458;49.728;9.228;2023-09-19T14:47:51;21.90;38.10
2897;DHT22;1458;49.728;9.228;2023-09-19T14:50:20;22.00;38.30
2897;DHT22;1458;49.728;9.228;2023-09-19T14:52:48;21.80;38.80
2897;DHT22;1458;49.728;9.228;2023-09-19T14:55:17;21.50;39.00
2897;DHT22;1458;49.728;9.228;2023-09-19T14:57:49;21.40;38.40
2897;DHT22;1458;49.728;9.228;2023-09-19T15:00:18;21.40;38.10
2897;DHT22;1458;49.728;9.228;2023-09-19T15:02:47;21.30;38.20
2897;DHT22;1458;49.728;9.228;2023-09-19T15:05:16;21.10;40.00
2897;DHT22;1458;49.728;9.228;2023-09-19T15:07:43;21.00;40.60
2897;DHT22;1458;49.728;9.228;2023-09-19T15:10:10;21.00;39.10
2897;DHT22;1458;49.728;9.228;2023-09-19T15:12:39;20.90;40.20
2897;DHT22;1458;49.728;9.228;2023-09-19T15:15:07;20.90;41.40
2897;DHT22;1458;49.728;9.228;2023-09-19T15:17:36;20.90;42.80
2897;DHT22;1458;49.728;9.228;2023-09-19T15:20:05;20.90;42.30
2897;DHT22;1458;49.728;9.228;2023-09-19T15:22:33;20.80;43.30
2897;DHT22;1458;49.728;9.228;2023-09-19T15:25:01;20.80;44.40
2897;DHT22;1458;49.728;9.228;2023-09-19T15:27:29;20.80;44.10
2897;DHT22;1458;49.728;9.228;2023-09-19T15:29:59;20.80;44.60
2897;DHT22;1458;49.728;9.228;2023-09-19T15:32:28;20.80;45.40
2897;DHT22;1458;49.728;9.228;2023-09-19T15:34:57;20.70;44.90
2897;DHT22;1458;49.728;9.228;2023-09-19T15:37:25;20.70;45.50
2897;DHT22;1458;49.728;9.228;2023-09-19T15:39:53;20.80;45.40
2897;DHT22;1458;49.728;9.228;2023-09-19T15:42:21;20.80;44.70
2897;DHT22;1458;49.728;9.228;2023-09-19T15:44:48;20.70;45.20
2897;DHT22;1458;49.728;9.228;2023-09-19T15:47:17;20.70;46.00
2897;DHT22;1458;49.728;9.228;2023-09-19T15:49:45;20.80;46.10
2897;DHT22;1458;49.728;9.228;2023-09-19T15:52:17;20.70;46.00
2897;DHT22;1458;49.728;9.228;2023-09-19T15:54:44;20.70;48.90
2897;DHT22;1458;49.728;9.228;2023-09-19T15:57:11;20.70;46.00
2897;DHT22;1458;49.728;9.228;2023-09-19T15:59:40;20.60;46.30
2897;DHT22;1458;49.728;9.228;2023-09-19T16:02:07;20.60;48.70
2897;DHT22;1458;49.728;9.228;2023-09-19T16:04:34;20.50;47.10
2897;DHT22;1458;49.728;9.228;2023-09-19T16:07:04;20.50;48.20
2897;DHT22;1458;49.728;9.228;2023-09-19T16:09:34;20.40;47.40
2897;DHT22;1458;49.728;9.228;2023-09-19T16:12:01;20.50;48.10
2897;DHT22;1458;49.728;9.228;2023-09-19T16:14:29;20.50;47.00
2897;DHT22;1458;49.728;9.228;2023-09-19T16:16:57;20.50;47.70
2897;DHT22;1458;49.728;9.228;2023-09-19T16:19:25;20.40;46.90
2897;DHT22;1458;49.728;9.228;2023-09-19T16:21:53;20.40;48.60
2897;DHT22;1458;49.728;9.228;2023-09-19T16:24:21;20.40;48.40
2897;DHT22;1458;49.728;9.228;2023-09-19T16:26:50;20.40;48.60
2897;DHT22;1458;49.728;9.228;2023-09-19T16:29:18;20.40;48.30
2897;DHT22;1458;49.728;9.228;2023-09-19T16:31:47;20.30;49.60
2897;DHT22;1458;49.728;9.228;2023-09-19T16:34:15;20.10;50.80
2897;DHT22;1458;49.728;9.228;2023-09-19T16:36:43;20.10;50.50